sensor_id;sensor_type;location;lat;lon;timestamp;pressure;altitude;pressure_sealevel;temperature;humidity
74544;BME280;63016;55.030;38.710;2023-04-21T00:00:45;99980.66;;;9.32;32.16
74544;BME280;63016;55.030;38.710;2023-04-21T00:03:11;99968.28;;;9.25;32.44
74544;BME280;63016;55.030;38.710;2023-04-21T00:05:36;99977.53;;;9.28;31.94
74544;BME280;63016;55.030;38.710;2023-04-21T00:08:07;99979.50;;;9.26;32.10
74544;BME280;63016;55.030;38.710;2023-04-21T00:10:32;99976.38;;;9.22;32.41
74544;BME280;63016;55.030;38.710;2023-04-21T00:12:58;99973.13;;;9.20;32.12
74544;BME280;63016;55.030;38.710;2023-04-21T00:15:23;99975.22;;;9.17;32.00
74544;BME280;63016;55.030;38.710;2023-04-21T00:17:49;99972.94;;;9.14;32.76
74544;BME280;63016;55.030;38.710;2023-04-21T00:20:14;99971.63;;;9.10;32.31
74544;BME280;63016;55.030;38.710;2023-04-21T00:22:40;99971.91;;;9.07;32.49
74544;BME280;63016;55.030;38.710;2023-04-21T00:25:06;99973.88;;;9.05;32.74
74544;BME280;63016;55.030;38.710;2023-04-21T00:27:31;99981.00;;;9.02;32.26
74544;BME280;63016;55.030;38.710;2023-04-21T00:29:57;99968.13;;;9.01;32.66
74544;BME280;63016;55.030;38.710;2023-04-21T00:32:22;99966.00;;;8.96;32.64
74544;BME280;63016;55.030;38.710;2023-04-21T00:34:48;99969.56;;;8.95;32.68
74544;BME280;63016;55.030;38.710;2023-04-21T00:37:13;99969.69;;;8.94;32.64
74544;BME280;63016;55.030;38.710;2023-04-21T00:39:39;99964.97;;;8.89;32.49
74544;BME280;63016;55.030;38.710;2023-04-21T00:42:04;99964.59;;;8.84;32.45
74544;BME280;63016;55.030;38.710;2023-04-21T00:44:30;99963.28;;;8.80;32.54
74544;BME280;63016;55.030;38.710;2023-04-21T00:46:55;99965.22;;;8.78;32.76
74544;BME280;63016;55.030;38.710;2023-04-21T00:49:21;99957.06;;;8.73;33.18
74544;BME280;63016;55.030;38.710;2023-04-21T00:51:49;99961.44;;;8.72;32.79
74544;BME280;63016;55.030;38.710;2023-04-21T00:54:15;99944.94;;;8.64;32.96
74544;BME280;63016;55.030;38.710;2023-04-21T00:56:42;99952.09;;;8.62;32.92
74544;BME280;63016;55.030;38.710;2023-04-21T00:59:08;99960.03;;;8.60;32.87
74544;BME280;63016;55.030;38.710;2023-04-21T01:01:34;99954.47;;;8.55;32.81
74544;BME280;63016;55.030;38.710;2023-04-21T01:04:02;99953.81;;;8.53;32.65
74544;BME280;63016;55.030;38.710;2023-04-21T01:06:29;99953.47;;;8.48;33.25
74544;BME280;63016;55.030;38.710;2023-04-21T01:08:56;99951.97;;;8.45;33.60
74544;BME280;63016;55.030;38.710;2023-04-21T01:11:22;99951.59;;;8.40;33.48
74544;BME280;63016;55.030;38.710;2023-04-21T01:13:51;99942.59;;;8.35;34.24
74544;BME280;63016;55.030;38.710;2023-04-21T01:16:17;99946.59;;;8.29;33.56
74544;BME280;63016;55.030;38.710;2023-04-21T01:18:44;99947.88;;;8.25;33.43
74544;BME280;63016;55.030;38.710;2023-04-21T01:21:10;99950.09;;;8.20;33.78
74544;BME280;63016;55.030;38.710;2023-04-21T01:23:35;99948.75;;;8.16;33.74
74544;BME280;63016;55.030;38.710;2023-04-21T01:26:01;99948.38;;;8.11;33.46
74544;BME280;63016;55.030;38.710;2023-04-21T01:28:27;99948.69;;;8.08;33.07
74544;BME280;63016;55.030;38.710;2023-04-21T01:30:52;99951.75;;;8.03;33.33
74544;BME280;63016;55.030;38.710;2023-04-21T01:33:19;99952.19;;;7.98;33.23
74544;BME280;63016;55.030;38.710;2023-04-21T01:35:45;99951.66;;;7.95;33.11
74544;BME280;63016;55.030;38.710;2023-04-21T01:38:10;99954.41;;;7.93;33.54
74544;BME280;63016;55.030;38.710;2023-04-21T01:40:37;99945.25;;;7.89;32.97
74544;BME280;63016;55.030;38.710;2023-04-21T01:43:03;99957.44;;;7.89;33.02
74544;BME280;63016;55.030;38.710;2023-04-21T01:45:32;99955.41;;;7.83;33.09
74544;BME280;63016;55.030;38.710;2023-04-21T01:47:57;99957.50;;;7.79;33.11
74544;BME280;63016;55.030;38.710;2023-04-21T01:50:23;99950.25;;;7.73;33.01
74544;BME280;63016;55.030;38.710;2023-04-21T01:52:48;99952.19;;;7.71;33.06
74544;BME280;63016;55.030;38.710;2023-04-21T01:55:14;99949.88;;;7.68;33.41
74544;BME280;63016;55.030;38.710;2023-04-21T01:57:39;99949.22;;;7.66;33.39
74544;BME280;63016;55.030;38.710;2023-04-21T02:00:05;99954.84;;;7.61;33.18
74544;BME280;63016;55.030;38.710;2023-04-21T02:02:31;99948.47;;;7.56;33.42
74544;BME280;63016;55.030;38.710;2023-04-21T02:04:57;99948.75;;;7.53;33.37
74544;BME280;63016;55.030;38.710;2023-04-21T02:07:22;99941.75;;;7.53;33.47
74544;BME280;63016;55.030;38.710;2023-04-21T02:09:48;99947.25;;;7.50;33.42
74544;BME280;63016;55.030;38.710;2023-04-21T02:12:13;99946.44;;;7.50;33.24
74544;BME280;63016;55.030;38.710;2023-04-21T02:14:39;99944.78;;;7.48;33.47
74544;BME280;63016;55.030;38.710;2023-04-21T02:17:04;99944.13;;;7.46;33.88
74544;BME280;63016;55.030;38.710;2023-04-21T02:19:30;99945.38;;;7.42;33.47
74544;BME280;63016;55.030;38.710;2023-04-21T02:21:55;99940.47;;;7.39;33.49
74544;BME280;63016;55.030;38.710;2023-04-21T02:24:21;99943.47;;;7.35;34.12
74544;BME280;63016;55.030;38.710;2023-04-21T02:26:46;99940.38;;;7.31;33.69
74544;BME280;63016;55.030;38.710;2023-04-21T02:29:13;99953.47;;;7.30;34.10
74544;BME280;63016;55.030;38.710;2023-04-21T02:31:39;99952.00;;;7.27;33.95
74544;BME280;63016;55.030;38.710;2023-04-21T02:34:05;99952.97;;;7.26;33.93
74544;BME280;63016;55.030;38.710;2023-04-21T02:36:30;99945.47;;;7.23;33.58
74544;BME280;63016;55.030;38.710;2023-04-21T02:38:56;99952.59;;;7.21;34.51
74544;BME280;63016;55.030;38.710;2023-04-21T02:41:22;99948.47;;;7.18;34.14
74544;BME280;63016;55.030;38.710;2023-04-21T02:43:47;99949.59;;;7.16;34.50
74544;BME280;63016;55.030;38.710;2023-04-21T02:46:13;99948.75;;;7.15;34.63
74544;BME280;63016;55.030;38.710;2023-04-21T02:48:38;99954.78;;;7.16;34.77
74544;BME280;63016;55.030;38.710;2023-04-21T02:51:04;99940.47;;;7.12;34.62
74544;BME280;63016;55.030;38.710;2023-04-21T02:53:30;99942.75;;;7.15;34.75
74544;BME280;63016;55.030;38.710;2023-04-21T02:55:55;99937.72;;;7.13;34.70
74544;BME280;63016;55.030;38.710;2023-04-21T02:58:21;99936.47;;;7.17;34.48
74544;BME280;63016;55.030;38.710;2023-04-21T03:00:46;99935.50;;;7.18;34.29
74544;BME280;63016;55.030;38.710;2023-04-21T03:03:14;99944.81;;;7.21;34.19
74544;BME280;63016;55.030;38.710;2023-04-21T03:05:40;99943.28;;;7.18;34.11
74544;BME280;63016;55.030;38.710;2023-04-21T03:08:05;99942.19;;;7.21;33.55
74544;BME280;63016;55.030;38.710;2023-04-21T03:10:31;99954.22;;;7.22;33.82
74544;BME280;63016;55.030;38.710;2023-04-21T03:12:56;99943.00;;;7.21;33.64
74544;BME280;63016;55.030;38.710;2023-04-21T03:15:22;99942.72;;;7.25;33.22
74544;BME280;63016;55.030;38.710;2023-04-21T03:17:48;99945.19;;;7.26;33.75
74544;BME280;63016;55.030;38.710;2023-04-21T03:20:13;99957.75;;;7.31;33.41
74544;BME280;63016;55.030;38.710;2023-04-21T03:22:40;99946.22;;;7.33;33.41
74544;BME280;63016;55.030;38.710;2023-04-21T03:25:06;99950.19;;;7.37;33.34
74544;BME280;63016;55.030;38.710;2023-04-21T03:27:32;99951.53;;;7.41;33.82
74544;BME280;63016;55.030;38.710;2023-04-21T03:29:58;99949.47;;;7.45;33.79
74544;BME280;63016;55.030;38.710;2023-04-21T03:32:23;99947.25;;;7.50;33.76
74544;BME280;63016;55.030;38.710;2023-04-21T03:34:49;99945.06;;;7.55;33.53
74544;BME280;63016;55.030;38.710;2023-04-21T03:37:14;99945.13;;;7.63;33.69
74544;BME280;63016;55.030;38.710;2023-04-21T03:39:40;99946.19;;;7.70;33.76
74544;BME280;63016;55.030;38.710;2023-04-21T03:42:06;99936.84;;;7.78;33.61
74544;BME280;63016;55.030;38.710;2023-04-21T03:44:31;99940.34;;;7.86;33.58
74544;BME280;63016;55.030;38.710;2023-04-21T03:46:57;99940.44;;;7.94;33.85
74544;BME280;63016;55.030;38.710;2023-04-21T03:49:23;99942.28;;;8.02;33.27
74544;BME280;63016;55.030;38.710;2023-04-21T03:51:48;99932.78;;;8.11;33.26
74544;BME280;63016;55.030;38.710;2023-04-21T03:54:14;99937.78;;;8.22;33.43
74544;BME280;63016;55.030;38.710;2023-04-21T03:56:39;99936.84;;;8.31;34.13
74544;BME280;63016;55.030;38.710;2023-04-21T03:59:05;99932.28;;;8.43;33.55
74544;BME280;63016;55.030;38.710;2023-04-21T04:01:31;99931.06;;;8.55;33.55
74544;BME280;63016;55.030;38.710;2023-04-21T04:03:56;99928.25;;;8.66;33.07
74544;BME280;63016;55.030;38.710;2023-04-21T04:06:22;99928.16;;;8.76;33.46
74544;BME280;63016;55.030;38.710;2023-04-21T04:08:47;99930.47;;;8.87;33.47
74544;BME280;63016;55.030;38.710;2023-04-21T04:11:13;99929.91;;;9.01;33.49
74544;BME280;63016;55.030;38.710;2023-04-21T04:13:38;99932.75;;;9.16;33.37
74544;BME280;63016;55.030;38.710;2023-04-21T04:16:04;99935.59;;;9.31;33.30
74544;BME280;63016;55.030;38.710;2023-04-21T04:18:29;99941.53;;;9.49;33.63
74544;BME280;63016;55.030;38.710;2023-04-21T04:20:55;99934.75;;;9.65;33.71
74544;BME280;63016;55.030;38.710;2023-04-21T04:23:20;99940.81;;;9.82;33.64
74544;BME280;63016;55.030;38.710;2023-04-21T04:25:46;99941.00;;;9.96;33.59
74544;BME280;63016;55.030;38.710;2023-04-21T04:28:12;99930.28;;;10.08;33.00
74544;BME280;63016;55.030;38.710;2023-04-21T04:30:37;99935.81;;;10.21;33.40
74544;BME280;63016;55.030;38.710;2023-04-21T04:33:03;99932.91;;;10.32;33.43
74544;BME280;63016;55.030;38.710;2023-04-21T04:35:29;99935.38;;;10.42;33.32
74544;BME280;63016;55.030;38.710;2023-04-21T04:37:54;99927.38;;;10.51;33.24
74544;BME280;63016;55.030;38.710;2023-04-21T04:40:21;99935.34;;;10.66;33.54
74544;BME280;63016;55.030;38.710;2023-04-21T04:42:46;99930.59;;;10.78;33.34
74544;BME280;63016;55.030;38.710;2023-04-21T04:45:13;99930.09;;;10.91;32.68
74544;BME280;63016;55.030;38.710;2023-04-21T04:47:38;99932.19;;;11.03;32.84
74544;BME280;63016;55.030;38.710;2023-04-21T04:50:05;99932.47;;;11.17;33.49
74544;BME280;63016;55.030;38.710;2023-04-21T04:52:30;99929.50;;;11.28;33.25
74544;BME280;63016;55.030;38.710;2023-04-21T04:54:56;99920.97;;;11.42;32.74
74544;BME280;63016;55.030;38.710;2023-04-21T04:57:22;99928.06;;;11.56;33.27
74544;BME280;63016;55.030;38.710;2023-04-21T04:59:47;99917.72;;;11.71;33.19
74544;BME280;63016;55.030;38.710;2023-04-21T05:02:13;99920.06;;;11.89;33.32
74544;BME280;63016;55.030;38.710;2023-04-21T05:04:38;99914.75;;;12.05;33.08
74544;BME280;63016;55.030;38.710;2023-04-21T05:07:05;99906.75;;;12.22;32.89
74544;BME280;63016;55.030;38.710;2023-04-21T05:09:32;99904.19;;;12.37;33.12
74544;BME280;63016;55.030;38.710;2023-04-21T05:11:59;99912.63;;;12.61;33.39
74544;BME280;63016;55.030;38.710;2023-04-21T05:14:26;99905.25;;;12.80;33.13
74544;BME280;63016;55.030;38.710;2023-04-21T05:16:51;99902.28;;;12.98;33.13
74544;BME280;63016;55.030;38.710;2023-04-21T05:19:16;99902.28;;;13.12;32.72
74544;BME280;63016;55.030;38.710;2023-04-21T05:21:42;99900.28;;;13.29;32.88
74544;BME280;63016;55.030;38.710;2023-04-21T05:24:08;99895.88;;;13.45;32.97
74544;BME280;63016;55.030;38.710;2023-04-21T05:26:33;99885.97;;;13.61;32.73
74544;BME280;63016;55.030;38.710;2023-04-21T05:28:59;99897.59;;;13.74;32.97
74544;BME280;63016;55.030;38.710;2023-04-21T05:31:24;99889.69;;;13.88;32.92
74544;BME280;63016;55.030;38.710;2023-04-21T05:33:50;99896.47;;;14.04;32.96
74544;BME280;63016;55.030;38.710;2023-04-21T05:36:16;99904.91;;;14.21;32.59
74544;BME280;63016;55.030;38.710;2023-04-21T05:38:41;99900.56;;;14.35;32.75
74544;BME280;63016;55.030;38.710;2023-04-21T05:41:07;99897.09;;;14.49;32.83
74544;BME280;63016;55.030;38.710;2023-04-21T05:43:33;99905.66;;;14.64;32.72
74544;BME280;63016;55.030;38.710;2023-04-21T05:48:43;99889.72;;;14.94;32.44
74544;BME280;63016;55.030;38.710;2023-04-21T05:51:13;99895.81;;;15.08;32.62
74544;BME280;63016;55.030;38.710;2023-04-21T05:53:43;99889.84;;;15.21;32.47
74544;BME280;63016;55.030;38.710;2023-04-21T05:56:09;99887.66;;;15.37;32.53
74544;BME280;63016;55.030;38.710;2023-04-21T05:58:36;99894.66;;;15.65;32.30
74544;BME280;63016;55.030;38.710;2023-04-21T06:01:01;99889.88;;;15.82;31.84
74544;BME280;63016;55.030;38.710;2023-04-21T06:03:29;99884.59;;;15.95;31.57
74544;BME280;63016;55.030;38.710;2023-04-21T06:08:40;99876.97;;;16.20;31.46
74544;BME280;63016;55.030;38.710;2023-04-21T06:11:05;99876.94;;;16.33;31.35
74544;BME280;63016;55.030;38.710;2023-04-21T06:13:31;99878.94;;;16.51;31.61
74544;BME280;63016;55.030;38.710;2023-04-21T06:15:56;99882.00;;;16.75;31.53
74544;BME280;63016;55.030;38.710;2023-04-21T06:18:22;99872.22;;;16.95;31.29
74544;BME280;63016;55.030;38.710;2023-04-21T06:20:52;99878.03;;;17.10;31.22
74544;BME280;63016;55.030;38.710;2023-04-21T06:23:36;99876.16;;;17.24;31.33
74544;BME280;63016;55.030;38.710;2023-04-21T06:26:03;99873.28;;;17.32;30.55
74544;BME280;63016;55.030;38.710;2023-04-21T06:28:31;99876.69;;;17.46;30.42
74544;BME280;63016;55.030;38.710;2023-04-21T06:33:59;99868.66;;;17.66;29.68
74544;BME280;63016;55.030;38.710;2023-04-21T06:36:25;99867.22;;;17.70;29.80
74544;BME280;63016;55.030;38.710;2023-04-21T06:38:51;99867.59;;;17.73;29.56
74544;BME280;63016;55.030;38.710;2023-04-21T06:41:17;99869.59;;;17.85;29.47
74544;BME280;63016;55.030;38.710;2023-04-21T06:43:42;99878.19;;;17.98;29.21
74544;BME280;63016;55.030;38.710;2023-04-21T06:46:08;99865.59;;;18.01;28.75
74544;BME280;63016;55.030;38.710;2023-04-21T06:48:33;99864.81;;;18.00;29.07
74544;BME280;63016;55.030;38.710;2023-04-21T06:50:59;99864.50;;;18.08;28.90
74544;BME280;63016;55.030;38.710;2023-04-21T06:53:25;99865.22;;;18.22;29.16
74544;BME280;63016;55.030;38.710;2023-04-21T06:55:51;99855.16;;;18.37;28.90
74544;BME280;63016;55.030;38.710;2023-04-21T06:58:17;99858.91;;;18.48;28.83
74544;BME280;63016;55.030;38.710;2023-04-21T07:00:43;99853.13;;;18.58;28.85
74544;BME280;63016;55.030;38.710;2023-04-21T07:03:08;99852.00;;;18.72;29.41
74544;BME280;63016;55.030;38.710;2023-04-21T07:05:34;99856.53;;;18.83;28.80
74544;BME280;63016;55.030;38.710;2023-04-21T07:07:59;99850.75;;;18.93;28.62
74544;BME280;63016;55.030;38.710;2023-04-21T07:10:25;99847.22;;;18.99;28.75
74544;BME280;63016;55.030;38.710;2023-04-21T07:12:51;99857.25;;;19.09;28.58
74544;BME280;63016;55.030;38.710;2023-04-21T07:15:17;99851.44;;;19.18;28.92
74544;BME280;63016;55.030;38.710;2023-04-21T07:17:42;99847.94;;;19.24;28.46
74544;BME280;63016;55.030;38.710;2023-04-21T07:20:08;99851.28;;;19.32;28.50
74544;BME280;63016;55.030;38.710;2023-04-21T07:22:34;99840.41;;;19.40;28.40
74544;BME280;63016;55.030;38.710;2023-04-21T07:25:04;99847.81;;;19.49;28.18
74544;BME280;63016;55.030;38.710;2023-04-21T07:27:48;99841.34;;;19.45;28.04
74544;BME280;63016;55.030;38.710;2023-04-21T07:30:14;99838.75;;;19.39;27.89
74544;BME280;63016;55.030;38.710;2023-04-21T07:32:39;99840.94;;;19.30;27.86
74544;BME280;63016;55.030;38.710;2023-04-21T07:35:23;99834.25;;;19.27;27.84
74544;BME280;63016;55.030;38.710;2023-04-21T07:37:49;99833.34;;;19.34;28.23
74544;BME280;63016;55.030;38.710;2023-04-21T07:40:15;99844.06;;;19.39;27.96
74544;BME280;63016;55.030;38.710;2023-04-21T07:42:41;99830.69;;;19.34;27.73
74544;BME280;63016;55.030;38.710;2023-04-21T07:45:06;99844.81;;;19.27;27.91
74544;BME280;63016;55.030;38.710;2023-04-21T07:47:32;99835.66;;;19.30;27.92
74544;BME280;63016;55.030;38.710;2023-04-21T07:49:58;99816.47;;;19.35;27.85
74544;BME280;63016;55.030;38.710;2023-04-21T07:52:24;99825.22;;;19.47;28.07
74544;BME280;63016;55.030;38.710;2023-04-21T07:54:49;99822.84;;;19.57;28.09
74544;BME280;63016;55.030;38.710;2023-04-21T07:57:15;99814.84;;;19.64;28.02
74544;BME280;63016;55.030;38.710;2023-04-21T07:59:41;99818.31;;;19.76;28.15
74544;BME280;63016;55.030;38.710;2023-04-21T08:04:51;99810.66;;;19.98;27.77
74544;BME280;63016;55.030;38.710;2023-04-21T08:07:16;99813.97;;;19.93;27.57
74544;BME280;63016;55.030;38.710;2023-04-21T08:09:42;99806.81;;;19.82;27.09
74544;BME280;63016;55.030;38.710;2023-04-21T08:12:07;99799.66;;;19.71;27.13
74544;BME280;63016;55.030;38.710;2023-04-21T08:14:33;99801.94;;;19.67;27.63
74544;BME280;63016;55.030;38.710;2023-04-21T08:16:58;99807.72;;;19.64;27.39
74544;BME280;63016;55.030;38.710;2023-04-21T08:22:08;99791.09;;;19.57;27.70
74544;BME280;63016;55.030;38.710;2023-04-21T08:24:34;99797.34;;;19.63;27.46
74544;BME280;63016;55.030;38.710;2023-04-21T08:26:59;99793.31;;;19.60;26.92
74544;BME280;63016;55.030;38.710;2023-04-21T08:29:27;99788.91;;;19.54;27.20
74544;BME280;63016;55.030;38.710;2023-04-21T08:31:52;99786.94;;;19.49;27.36
74544;BME280;63016;55.030;38.710;2023-04-21T08:34:18;99786.94;;;19.49;27.03
74544;BME280;63016;55.030;38.710;2023-04-21T08:36:44;99775.19;;;19.45;27.33
74544;BME280;63016;55.030;38.710;2023-04-21T08:39:12;99775.56;;;19.49;27.43
74544;BME280;63016;55.030;38.710;2023-04-21T08:41:38;99773.84;;;19.55;27.40
74544;BME280;63016;55.030;38.710;2023-04-21T08:44:09;99772.78;;;19.56;27.34
74544;BME280;63016;55.030;38.710;2023-04-21T08:46:38;99770.16;;;19.56;27.52
74544;BME280;63016;55.030;38.710;2023-04-21T08:49:04;99768.53;;;19.55;27.05
74544;BME280;63016;55.030;38.710;2023-04-21T08:51:30;99764.06;;;19.55;27.10
74544;BME280;63016;55.030;38.710;2023-04-21T08:53:56;99761.28;;;19.50;26.91
74544;BME280;63016;55.030;38.710;2023-04-21T08:56:23;99750.44;;;19.40;27.01
74544;BME280;63016;55.030;38.710;2023-04-21T08:58:49;99746.88;;;19.34;26.88
74544;BME280;63016;55.030;38.710;2023-04-21T09:01:14;99744.00;;;19.36;27.21
74544;BME280;63016;55.030;38.710;2023-04-21T09:03:40;99738.81;;;19.41;26.95
74544;BME280;63016;55.030;38.710;2023-04-21T09:06:07;99734.91;;;19.43;27.26
74544;BME280;63016;55.030;38.710;2023-04-21T09:08:37;99736.53;;;19.44;27.08
74544;BME280;63016;55.030;38.710;2023-04-21T09:11:02;99739.75;;;19.46;27.53
74544;BME280;63016;55.030;38.710;2023-04-21T09:16:18;99735.00;;;19.37;26.90
74544;BME280;63016;55.030;38.710;2023-04-21T09:18:47;99725.34;;;19.31;26.96
74544;BME280;63016;55.030;38.710;2023-04-21T09:21:15;99718.66;;;19.28;27.04
74544;BME280;63016;55.030;38.710;2023-04-21T09:24:03;99723.88;;;19.35;27.74
74544;BME280;63016;55.030;38.710;2023-04-21T09:26:30;99713.03;;;19.36;26.88
74544;BME280;63016;55.030;38.710;2023-04-21T09:28:56;99721.78;;;19.37;27.00
74544;BME280;63016;55.030;38.710;2023-04-21T09:31:23;99727.53;;;19.34;26.85
74544;BME280;63016;55.030;38.710;2023-04-21T09:33:55;99722.34;;;19.39;28.94
74544;BME280;63016;55.030;38.710;2023-04-21T09:36:25;99730.16;;;19.34;27.37
74544;BME280;63016;55.030;38.710;2023-04-21T09:39:09;99726.72;;;19.33;26.92
74544;BME280;63016;55.030;38.710;2023-04-21T09:41:35;99724.53;;;19.30;26.83
74544;BME280;63016;55.030;38.710;2023-04-21T09:44:00;99709.47;;;19.31;26.87
74544;BME280;63016;55.030;38.710;2023-04-21T09:46:31;99698.88;;;19.31;27.10
74544;BME280;63016;55.030;38.710;2023-04-21T09:48:59;99691.31;;;19.34;27.02
74544;BME280;63016;55.030;38.710;2023-04-21T09:51:44;99709.59;;;19.36;27.00
74544;BME280;63016;55.030;38.710;2023-04-21T09:54:15;99687.59;;;19.23;26.40
74544;BME280;63016;55.030;38.710;2023-04-21T09:56:42;99698.41;;;19.22;27.14
74544;BME280;63016;55.030;38.710;2023-04-21T09:59:13;99692.19;;;19.16;26.38
74544;BME280;63016;55.030;38.710;2023-04-21T10:01:40;99677.00;;;19.12;26.77
74544;BME280;63016;55.030;38.710;2023-04-21T10:04:07;99681.94;;;19.08;26.55
74544;BME280;63016;55.030;38.710;2023-04-21T10:06:33;99669.19;;;19.05;26.54
74544;BME280;63016;55.030;38.710;2023-04-21T10:08:58;99666.72;;;19.04;26.90
74544;BME280;63016;55.030;38.710;2023-04-21T10:11:25;99677.22;;;19.10;26.72
74544;BME280;63016;55.030;38.710;2023-04-21T10:13:51;99660.31;;;19.11;26.49
74544;BME280;63016;55.030;38.710;2023-04-21T10:16:17;99655.25;;;19.10;26.69
74544;BME280;63016;55.030;38.710;2023-04-21T10:18:44;99649.97;;;19.10;26.83
74544;BME280;63016;55.030;38.710;2023-04-21T10:21:11;99677.22;;;19.10;26.89
74544;BME280;63016;55.030;38.710;2023-04-21T10:23:38;99650.56;;;19.12;26.69
74544;BME280;63016;55.030;38.710;2023-04-21T10:26:13;99651.34;;;19.12;26.55
74544;BME280;63016;55.030;38.710;2023-04-21T10:28:42;99641.94;;;19.16;26.76
74544;BME280;63016;55.030;38.710;2023-04-21T10:34:14;99654.50;;;19.33;27.54
74544;BME280;63016;55.030;38.710;2023-04-21T10:39:34;99634.38;;;19.32;26.86
74544;BME280;63016;55.030;38.710;2023-04-21T10:52:37;99636.66;;;19.16;27.10
74544;BME280;63016;55.030;38.710;2023-04-21T10:55:09;99626.06;;;19.16;26.63
74544;BME280;63016;55.030;38.710;2023-04-21T10:57:37;99626.75;;;19.23;26.97
74544;BME280;63016;55.030;38.710;2023-04-21T11:00:24;99624.34;;;19.34;26.64
74544;BME280;63016;55.030;38.710;2023-04-21T11:03:08;99622.41;;;19.41;27.46
74544;BME280;63016;55.030;38.710;2023-04-21T11:05:39;99622.53;;;19.46;26.98
74544;BME280;63016;55.030;38.710;2023-04-21T11:08:23;99620.56;;;19.53;27.35
74544;BME280;63016;55.030;38.710;2023-04-21T11:10:55;99610.22;;;19.51;26.84
74544;BME280;63016;55.030;38.710;2023-04-21T11:13:25;99614.47;;;19.52;26.57
74544;BME280;63016;55.030;38.710;2023-04-21T11:16:01;99611.59;;;19.54;26.46
74544;BME280;63016;55.030;38.710;2023-04-21T11:18:52;99617.91;;;19.53;26.46
74544;BME280;63016;55.030;38.710;2023-04-21T11:21:18;99605.72;;;19.52;26.25
74544;BME280;63016;55.030;38.710;2023-04-21T11:23:49;99598.59;;;19.52;26.59
74544;BME280;63016;55.030;38.710;2023-04-21T11:26:15;99603.19;;;19.57;26.52
74544;BME280;63016;55.030;38.710;2023-04-21T11:28:41;99602.75;;;19.60;26.33
74544;BME280;63016;55.030;38.710;2023-04-21T11:31:07;99604.81;;;19.58;26.19
74544;BME280;63016;55.030;38.710;2023-04-21T11:33:37;99606.06;;;19.56;26.26
74544;BME280;63016;55.030;38.710;2023-04-21T11:36:07;99594.94;;;19.54;26.14
74544;BME280;63016;55.030;38.710;2023-04-21T11:38:40;99600.66;;;19.50;26.18
74544;BME280;63016;55.030;38.710;2023-04-21T11:41:07;99598.25;;;19.49;25.93
74544;BME280;63016;55.030;38.710;2023-04-21T11:43:35;99588.69;;;19.48;26.00
74544;BME280;63016;55.030;38.710;2023-04-21T11:46:36;99580.53;;;19.49;27.27
74544;BME280;63016;55.030;38.710;2023-04-21T11:49:06;99579.16;;;19.47;26.56
74544;BME280;63016;55.030;38.710;2023-04-21T11:51:36;99575.56;;;19.53;26.48
74544;BME280;63016;55.030;38.710;2023-04-21T11:54:13;99578.13;;;19.60;26.63
74544;BME280;63016;55.030;38.710;2023-04-21T11:56:41;99578.00;;;19.66;26.49
74544;BME280;63016;55.030;38.710;2023-04-21T12:02:29;99567.22;;;19.68;26.30
74544;BME280;63016;55.030;38.710;2023-04-21T12:04:57;99562.72;;;19.68;26.10
74544;BME280;63016;55.030;38.710;2023-04-21T12:07:24;99567.22;;;19.68;26.01
74544;BME280;63016;55.030;38.710;2023-04-21T12:13:11;99550.59;;;19.72;26.31
74544;BME280;63016;55.030;38.710;2023-04-21T12:15:37;99555.19;;;19.77;26.09
74544;BME280;63016;55.030;38.710;2023-04-21T12:18:11;99558.66;;;19.77;25.81
74544;BME280;63016;55.030;38.710;2023-04-21T12:20:37;99550.03;;;19.70;25.83
74544;BME280;63016;55.030;38.710;2023-04-21T12:23:02;99548.88;;;19.66;26.03
74544;BME280;63016;55.030;38.710;2023-04-21T12:25:28;99539.22;;;19.72;26.20
74544;BME280;63016;55.030;38.710;2023-04-21T12:27:57;99539.66;;;19.81;26.34
74544;BME280;63016;55.030;38.710;2023-04-21T12:30:23;99531.69;;;19.92;26.31
74544;BME280;63016;55.030;38.710;2023-04-21T12:32:48;99536.75;;;19.94;25.61
74544;BME280;63016;55.030;38.710;2023-04-21T12:35:16;99523.97;;;19.91;25.79
74544;BME280;63016;55.030;38.710;2023-04-21T12:37:43;99532.50;;;19.93;25.81
74544;BME280;63016;55.030;38.710;2023-04-21T12:40:09;99525.34;;;19.93;25.60
74544;BME280;63016;55.030;38.710;2023-04-21T12:42:35;99529.34;;;19.96;26.08
74544;BME280;63016;55.030;38.710;2023-04-21T12:45:00;99519.72;;;19.90;25.56
74544;BME280;63016;55.030;38.710;2023-04-21T12:47:26;99529.75;;;19.88;25.34
74544;BME280;63016;55.030;38.710;2023-04-21T12:49:55;99514.47;;;19.78;25.56
74544;BME280;63016;55.030;38.710;2023-04-21T12:55:26;99509.06;;;19.73;25.61
74544;BME280;63016;55.030;38.710;2023-04-21T12:57:52;99513.31;;;19.74;25.63
74544;BME280;63016;55.030;38.710;2023-04-21T13:00:24;99500.66;;;19.76;25.81
74544;BME280;63016;55.030;38.710;2023-04-21T13:02:50;99507.88;;;19.81;25.73
74544;BME280;63016;55.030;38.710;2023-04-21T13:16:32;99489.13;;;20.11;23.44
74544;BME280;63016;55.030;38.710;2023-04-21T13:18:57;99498.34;;;20.08;23.73
74544;BME280;63016;55.030;38.710;2023-04-21T13:21:23;99489.28;;;20.04;24.23
74544;BME280;63016;55.030;38.710;2023-04-21T13:26:40;99498.06;;;19.93;24.32
74544;BME280;63016;55.030;38.710;2023-04-21T13:29:05;99482.56;;;19.85;24.50
74544;BME280;63016;55.030;38.710;2023-04-21T13:31:31;99485.44;;;19.83;24.42
74544;BME280;63016;55.030;38.710;2023-04-21T13:33:58;99492.34;;;19.84;24.48
74544;BME280;63016;55.030;38.710;2023-04-21T13:36:24;99483.81;;;19.82;24.62
74544;BME280;63016;55.030;38.710;2023-04-21T13:39:08;99483.59;;;19.84;24.73
74544;BME280;63016;55.030;38.710;2023-04-21T13:41:34;99479.09;;;19.84;24.89
74544;BME280;63016;55.030;38.710;2023-04-21T13:43:59;99491.97;;;19.92;24.79
74544;BME280;63016;55.030;38.710;2023-04-21T13:46:25;99476.00;;;19.87;24.49
74544;BME280;63016;55.030;38.710;2023-04-21T13:49:11;99482.09;;;19.88;24.94